WetterOnline ( http://www.wetteronline.de )

Wetter aktuell Paderborn

Aktuelles Wetter: Bad Lippspringe (158m)

6-stündlich | Neueste Meldungen
Ortszeit Temperatur Wetter
Mo, 23.04. 14:00 16.9° C leicht bewölkt
Mo, 23.04. 8:00 14.0° C bewölkt
Mo, 23.04. 2:00 11.9° C wolkig
So, 22.04. 20:00 16.4° C leichter Regen
So, 22.04. 14:00 25.9° C wolkig
So, 22.04. 8:00 16.2° C bewölkt
So, 22.04. 2:00 12.3° C wolkig
Sa, 21.04. 20:00 17.9° C wolkig
Ortszeit Temperatur Wetter
Mo, 23.04. 15:30 16.4° C wolkig
Mo, 23.04. 15:10 17.4° C wolkig
Mo, 23.04. 15:00 16.4° C bewölkt
Mo, 23.04. 14:50 16.4° C bewölkt
Mo, 23.04. 14:40 16.4° C bewölkt
Mo, 23.04. 14:30 16.6° C wolkig
Mo, 23.04. 14:00 16.9° C leicht bewölkt
Mo, 23.04. 13:30 16.3° C leicht bewölkt
Mo, 23.04. 13:00 15.4° C bewölkt
Mo, 23.04. 12:30 16.6° C bewölkt
Ortszeit Relative Feuchte Sichtweite
Mo, 23.04. 14:00 61% 10 km
Mo, 23.04. 8:00 94% 4.9 km
Mo, 23.04. 2:00 98% 5.0 km
So, 22.04. 20:00 83% 28 km
So, 22.04. 14:00 47% 17 km
So, 22.04. 8:00 62% 15 km
So, 22.04. 2:00 64% 35 km
Sa, 21.04. 20:00 51% 30 km
Ortszeit Relative Feuchte Sichtweite
Mo, 23.04. 15:30 56% 20 km
Mo, 23.04. 15:10 56% -
Mo, 23.04. 15:00 60% 20 km
Mo, 23.04. 14:50 60% -
Mo, 23.04. 14:40 60% -
Mo, 23.04. 14:30 59% 15 km
Mo, 23.04. 14:00 61% 10 km
Mo, 23.04. 13:30 64% 13 km
Mo, 23.04. 13:00 68% 18 km
Mo, 23.04. 12:30 68% 17 km
Ortszeit Niederschlagsmenge Niederschlagsart
Mo, 23.04. 14:00 0.0 l/m2 in 6 Std. -
Mo, 23.04. 8:00 12 l/m2 in 12 Std. Regenschauer
Mo, 23.04. 2:00 2 l/m2 in 6 Std. Regen
So, 22.04. 20:00 2 l/m2 in 12 Std. Regen
So, 22.04. 14:00 0.0 l/m2 in 6 Std. -
So, 22.04. 8:00 0.0 l/m2 in 12 Std. -
So, 22.04. 2:00 0.0 l/m2 in 6 Std. -
Sa, 21.04. 20:00 0.0 l/m2 in 12 Std. -
Ortszeit Niederschlagsmenge Niederschlagsart
Mo, 23.04. 15:30 0.0 l/m2 in 1 Std. -
Mo, 23.04. 15:10 keine Meldung -
Mo, 23.04. 15:00 0.0 l/m2 in 1 Std. -
Mo, 23.04. 14:50 keine Meldung -
Mo, 23.04. 14:40 keine Meldung -
Mo, 23.04. 14:30 0.0 l/m2 in 1 Std. -
Mo, 23.04. 14:00 0.0 l/m2 in 1 Std. -
Mo, 23.04. 13:30 0.0 l/m2 in 1 Std. -
Mo, 23.04. 13:00 0.0 l/m2 in 1 Std. -
Mo, 23.04. 12:30 0.0 l/m2 in 1 Std. -
Ortszeit Stärke Spitze Richtung
km/h Bft. km/h Grad Sektor
Mo, 23.04. 14:00 28 4 39 250° W
Mo, 23.04. 8:00 7 2 54 240° SW
Mo, 23.04. 2:00 4 1 36 50° NO
So, 22.04. 20:00 14 3 72 190° S
So, 22.04. 14:00 6 1 20 210° SW
So, 22.04. 8:00 15 3 24 130° SO
So, 22.04. 2:00 7 2 18 80° O
Sa, 21.04. 20:00 11 2 22 30° NO
Ortszeit Stärke Spitze Richtung
km/h Bft. km/h Grad Sektor
Mo, 23.04. 15:30 18 3 36 250° W
Mo, 23.04. 15:10 22 4 - 270° W
Mo, 23.04. 15:00 19 3 39 280° W
Mo, 23.04. 14:50 19 3 - 280° W
Mo, 23.04. 14:40 20 4 - 270° W
Mo, 23.04. 14:30 25 4 40 270° W
Mo, 23.04. 14:00 28 4 37 250° W
Mo, 23.04. 13:30 24 4 35 250° W
Mo, 23.04. 13:00 25 4 40 270° W
Mo, 23.04. 12:30 22 4 33 250° W
Ortszeit Untergrenze Bedeckung Gattung
total tief tief mittel hoch
Mo, 23.04. 14:00 1500 m 3/8 - - - -
Mo, 23.04. 8:00 600 m 8/8 7/8 - - -
Mo, 23.04. 2:00 9000 m 7/8 0/8 - - -
So, 22.04. 20:00 1080 m 8/8 1/8 - - -
So, 22.04. 14:00 1500 m 7/8 2/8 - - -
So, 22.04. 8:00 1800 m 8/8 7/8 - - -
So, 22.04. 2:00 9000 m 8/8 0/8 - - -
Sa, 21.04. 20:00 3000 m 8/8 2/8 - - -
Ortszeit Bedeckungsgrad in Achtel und Wolkenuntergrenze
Mo, 23.04. 15:30 5(1500m)
Mo, 23.04. 15:10 1(1290m) 6(1500m)
Mo, 23.04. 15:00 4(1200m) 5(1440m) 7(1500m)
Mo, 23.04. 14:50 4(1200m) 5(1440m) 7(1500m)
Mo, 23.04. 14:40 5(1170m) 6(1470m) 7(1500m)
Mo, 23.04. 14:30 3(1170m) 6(1500m) 6(1500m)
Mo, 23.04. 14:00 3(1500m) 9 9
Mo, 23.04. 13:30 2(1500m)
Mo, 23.04. 13:00 6(900m) 7(1080m) 7(1320m)
Mo, 23.04. 12:30 6(900m) 6(1140m) 7(1410m)
Ortszeit Luftdruck NN (hPa) Tendenz (hPa in 3 Std.)
Mo, 23.04. 14:00 1015 + 0,7
Mo, 23.04. 8:00 1013 + 0,9
Mo, 23.04. 2:00 1011 - 0,4
So, 22.04. 20:00 1011 + 0,9
So, 22.04. 14:00 1012 - 1,7
So, 22.04. 8:00 1015 - 1,4
So, 22.04. 2:00 1019 - 0,7
Sa, 21.04. 20:00 1019 - 0,6
Ortszeit Luftdruck NN (hPa) Tendenz (hPa in 3 Std.)
Mo, 23.04. 15:30 1015 + 0,3
Mo, 23.04. 15:10 1015 keine Meldung
Mo, 23.04. 15:00 1015 + 0,5
Mo, 23.04. 14:50 1015 keine Meldung
Mo, 23.04. 14:40 1015 keine Meldung
Mo, 23.04. 14:30 1015 + 0,8
Mo, 23.04. 14:00 1015 + 0,7
Mo, 23.04. 13:30 1015 + 1,2
Mo, 23.04. 13:00 1015 + 1,4
Mo, 23.04. 12:30 1014 + 1,2
Ortszeit Schneehöhe (cm)
Mo, 23.04. 14:00 0
Mo, 23.04. 8:00 0
Mo, 23.04. 2:00 0
So, 22.04. 20:00 0
So, 22.04. 14:00 0
So, 22.04. 8:00 0
So, 22.04. 2:00 0
Sa, 21.04. 20:00 0
Ortszeit Schneehöhe (cm)
Mo, 23.04. 15:30 0
Mo, 23.04. 15:10 0
Mo, 23.04. 15:00 0
Mo, 23.04. 14:50 0
Mo, 23.04. 14:40 0
Mo, 23.04. 14:30 0
Mo, 23.04. 14:00 0
Mo, 23.04. 13:30 0
Mo, 23.04. 13:00 0
Mo, 23.04. 12:30 0
Link zu dieser Seite / Seite empfehlen

Das Wetter in ...